Аэропорт: Гомель. Гомель

ICAO: UMGG

METAR:
2021-04-21 20:00:00
UMGG 212000Z 19003MPS 9999 FEW049CB BKN100 08/06 Q1011 R28/CLRD// NOSIG
METAR:
2021-04-21 16:57:00
TAF UMGG 211657Z 2118/2218 20006MPS 6000 BKN020 TEMPO 2118/2203 19007G12MPS 1200 SHRA BR BKN004 BKN015CB PROB40 TEMPO 2118/2203 2000 TSRA BKN015CB TEMPO 2203/2208 22006G11MPS 2000 SHRA BKN005 BKN020CB TEMPO 2208/2218 23009G14MPS 2000 TSRA BKN006 BKN025CB